createdAt,value
2018-05-12T06:20:22.490Z,11.23
2018-05-12T06:22:54.824Z,9.93
2018-05-12T06:25:28.721Z,10.10
2018-05-12T06:28:00.996Z,8.20
2018-05-12T06:30:33.145Z,8.93
2018-05-12T06:33:05.720Z,8.73
2018-05-12T06:35:37.347Z,9.70
2018-05-12T06:38:09.616Z,9.40
2018-05-12T06:40:43.441Z,11.70
2018-05-12T06:43:16.190Z,9.20
2018-05-12T06:51:01.062Z,11.07
2018-05-12T06:53:32.939Z,15.67
2018-05-12T06:58:40.409Z,17.60
2018-05-12T07:01:13.325Z,19.63
2018-05-12T07:03:44.466Z,21.02
2018-05-12T07:06:15.811Z,20.40
2018-05-12T07:08:48.192Z,20.52
2018-05-12T07:11:19.990Z,18.60
2018-05-12T07:13:51.992Z,17.03
2018-05-12T07:16:23.969Z,17.75
2018-05-12T07:24:08.539Z,17.48
2018-05-12T07:26:40.508Z,17.87
2018-05-12T07:29:12.370Z,16.67
2018-05-12T07:31:44.186Z,16.80
2018-05-12T07:34:15.510Z,17.62
2018-05-12T07:36:46.499Z,16.27
2018-05-12T07:39:17.971Z,15.27
2018-05-12T07:41:51.016Z,16.30
2018-05-12T07:44:23.532Z,16.00
2018-05-12T07:49:31.171Z,17.93
2018-05-12T07:52:02.070Z,24.10
2018-05-12T07:54:33.913Z,18.95
2018-05-12T07:57:05.385Z,16.97
2018-05-12T07:59:36.997Z,16.60
2018-05-12T08:02:08.949Z,16.10
2018-05-12T08:04:41.315Z,18.08
2018-05-12T08:07:13.389Z,17.17
2018-05-12T08:09:46.505Z,18.00
2018-05-12T08:12:18.017Z,17.40
2018-05-12T08:17:30.022Z,17.73
2018-05-12T08:20:01.931Z,18.73
2018-05-12T08:22:33.615Z,18.87
2018-05-12T08:25:07.144Z,15.03
2018-05-12T08:30:15.280Z,19.87
2018-05-12T08:32:47.418Z,20.57
2018-05-12T08:35:18.849Z,19.63
2018-05-12T08:37:51.497Z,17.60
2018-05-12T08:42:58.965Z,21.43
2018-05-12T08:45:31.810Z,20.90
2018-05-12T08:48:05.131Z,20.90
2018-05-12T08:50:38.545Z,22.37
2018-05-12T08:53:11.373Z,21.40
2018-05-12T08:55:43.420Z,20.00
2018-05-12T08:58:16.162Z,22.33
2018-05-12T09:00:50.167Z,23.25
2018-05-12T09:03:22.964Z,25.73
2018-05-12T09:05:55.557Z,20.73
2018-05-12T09:08:27.344Z,21.60
2018-05-12T09:11:00.050Z,21.10
2018-05-12T09:16:08.711Z,25.83
2018-05-12T09:18:40.198Z,23.17
2018-05-12T09:21:12.948Z,22.80
2018-05-12T09:23:45.798Z,22.20
2018-05-12T09:26:18.163Z,20.83
2018-05-12T09:28:53.121Z,18.90
2018-05-12T09:34:03.441Z,18.45
2018-05-12T09:36:37.123Z,20.47
2018-05-12T09:39:09.071Z,17.73
2018-05-12T09:41:42.440Z,19.33
2018-05-12T09:44:14.725Z,18.90
2018-05-12T09:46:46.147Z,19.53
2018-05-12T09:49:17.613Z,20.57
2018-05-12T09:54:27.016Z,19.30
2018-05-12T09:56:56.636Z,18.83
2018-05-12T10:02:04.220Z,14.60
2018-05-12T10:07:20.355Z,11.85
2018-05-12T10:09:53.452Z,12.10
2018-05-12T10:12:26.668Z,12.97
2018-05-12T10:17:38.028Z,13.77
2018-05-12T10:20:09.334Z,12.20
2018-05-12T10:25:19.741Z,14.10
2018-05-12T10:33:03.412Z,11.80
2018-05-12T10:38:12.145Z,12.70
2018-05-12T10:40:45.373Z,12.07
2018-05-12T10:43:17.997Z,11.93
2018-05-12T10:45:49.216Z,11.98
2018-05-12T10:48:22.167Z,9.80
2018-05-12T10:50:53.180Z,8.40
2018-05-12T10:56:03.097Z,11.00
2018-05-12T10:58:33.885Z,10.17
2018-05-12T11:01:05.954Z,12.37
2018-05-12T11:03:37.399Z,10.67
2018-05-12T11:06:09.709Z,11.37
2018-05-12T11:08:42.177Z,12.48
2018-05-12T11:11:12.866Z,10.50
2018-05-12T11:13:42.969Z,9.23
2018-05-12T11:16:14.909Z,10.00
2018-05-12T11:18:45.631Z,8.83
2018-05-12T11:21:18.960Z,11.12
2018-05-12T11:23:51.638Z,9.00
2018-05-12T11:26:23.124Z,10.00
2018-05-12T11:28:54.725Z,11.77
2018-05-12T11:31:28.353Z,10.60
2018-05-12T11:34:00.882Z,10.67
2018-05-12T11:36:32.730Z,13.33
2018-05-12T11:39:04.927Z,10.23
2018-05-12T11:41:38.729Z,9.27
2018-05-12T11:44:10.299Z,9.00
2018-05-12T11:46:42.037Z,8.67
2018-05-12T11:49:14.348Z,9.60
2018-05-12T11:51:47.293Z,11.23
2018-05-12T11:54:20.543Z,11.53
2018-05-12T11:56:51.951Z,10.20
2018-05-12T11:59:23.775Z,9.80
2018-05-12T12:01:55.013Z,11.80
2018-05-12T12:04:27.181Z,10.60
2018-05-12T12:06:59.287Z,9.77
2018-05-12T12:09:31.746Z,9.20
2018-05-12T12:12:02.739Z,9.40
2018-05-12T12:14:35.300Z,8.10
2018-05-12T12:17:07.011Z,9.30
2018-05-12T12:19:41.064Z,10.97
2018-05-12T12:22:14.543Z,10.53
2018-05-12T12:24:47.252Z,11.97
2018-05-12T12:27:19.224Z,9.40
2018-05-12T12:29:52.318Z,6.33
2018-05-12T12:32:23.857Z,6.57
2018-05-12T12:34:55.083Z,6.72
2018-05-12T12:37:27.091Z,6.03
2018-05-12T12:39:59.560Z,7.57
2018-05-12T12:42:31.655Z,10.80
2018-05-12T12:45:03.253Z,7.33
2018-05-12T12:47:33.983Z,7.03
2018-05-12T12:50:06.082Z,7.97
2018-05-12T12:52:36.529Z,7.07
2018-05-12T12:55:07.225Z,11.80
2018-05-12T13:00:15.316Z,4.95
2018-05-12T13:08:05.404Z,6.20
2018-05-12T13:10:38.685Z,7.68
2018-05-12T13:13:11.989Z,5.73
2018-05-12T13:15:45.476Z,5.67
2018-05-12T13:18:20.316Z,6.33
2018-05-12T13:20:54.184Z,7.47
2018-05-12T13:23:27.637Z,8.03
2018-05-12T13:25:59.844Z,6.30
2018-05-12T13:33:44.987Z,6.87
2018-05-12T13:36:18.700Z,8.10
2018-05-12T13:38:51.303Z,7.60
2018-05-12T13:41:24.392Z,7.30
2018-05-12T13:43:57.257Z,7.85
2018-05-12T13:46:30.410Z,6.77
2018-05-12T13:49:02.914Z,6.60
2018-05-12T13:54:12.381Z,5.97
2018-05-12T13:56:46.228Z,8.20
2018-05-12T13:59:19.841Z,6.50
2018-05-12T14:01:52.938Z,5.47
2018-05-12T14:04:26.636Z,5.00
2018-05-12T14:06:59.515Z,5.13
2018-05-12T14:12:09.623Z,5.57
2018-05-12T14:14:42.790Z,4.93
2018-05-12T14:17:17.775Z,4.83
2018-05-12T14:19:50.841Z,5.13
2018-05-12T14:22:23.853Z,4.57
2018-05-12T14:24:56.616Z,4.13
2018-05-12T14:27:32.533Z,4.00
2018-05-12T14:30:04.935Z,5.07
2018-05-12T14:35:14.829Z,4.40
2018-05-12T14:37:47.972Z,4.30
2018-05-12T14:40:17.684Z,4.63
2018-05-12T14:42:50.767Z,5.27
2018-05-12T14:45:23.369Z,4.97
2018-05-12T14:50:33.234Z,4.55
2018-05-12T14:53:05.743Z,9.63
2018-05-12T14:55:38.376Z,4.97
2018-05-12T14:58:09.558Z,4.13
2018-05-12T15:00:41.520Z,4.23
2018-05-12T15:03:13.930Z,5.37
2018-05-12T15:05:45.123Z,4.07
2018-05-12T15:08:17.452Z,4.07
2018-05-12T15:13:26.140Z,4.30
2018-05-12T15:15:57.813Z,5.23
2018-05-12T15:18:29.214Z,6.15
2018-05-12T15:21:02.309Z,4.73
2018-05-12T15:23:34.735Z,5.93
2018-05-12T15:26:06.635Z,5.40
2018-05-12T15:28:39.074Z,5.23
2018-05-12T15:31:14.137Z,10.30
2018-05-12T15:33:46.918Z,8.23
2018-05-12T15:36:19.036Z,4.57
2018-05-12T15:38:51.392Z,5.43
2018-05-12T15:41:22.710Z,4.37
2018-05-12T15:43:55.608Z,4.80
2018-05-12T15:49:03.256Z,3.95
2018-05-12T15:51:34.903Z,4.60
2018-05-12T15:54:07.058Z,6.20
2018-05-12T15:56:39.070Z,4.12
2018-05-12T15:59:11.240Z,4.33
2018-05-12T16:01:43.303Z,3.20
2018-05-12T16:04:14.971Z,4.07
2018-05-12T16:09:22.754Z,5.45
2018-05-12T16:11:54.441Z,4.03
2018-05-12T16:14:26.385Z,4.00
2018-05-12T16:16:59.648Z,3.47
2018-05-12T16:19:31.180Z,3.95
2018-05-12T16:22:02.880Z,3.50
2018-05-12T16:24:34.320Z,4.00
2018-05-12T16:27:06.338Z,4.43
2018-05-12T16:29:37.913Z,3.83
2018-05-12T16:32:11.300Z,4.03
2018-05-12T16:34:43.300Z,4.00
2018-05-12T16:37:15.737Z,4.23
2018-05-12T16:42:25.335Z,4.00
2018-05-12T16:44:57.338Z,3.90
2018-05-12T16:47:29.844Z,3.90
2018-05-12T16:50:02.746Z,4.10
2018-05-12T16:52:35.044Z,4.15
2018-05-12T16:55:06.519Z,4.00
2018-05-12T16:57:38.361Z,4.60
2018-05-12T17:00:10.529Z,5.27
2018-05-12T17:02:43.846Z,5.93
2018-05-12T17:05:17.800Z,5.33
2018-05-12T17:07:49.625Z,4.47
2018-05-12T17:10:22.593Z,4.17
2018-05-12T17:12:56.207Z,4.57
2018-05-12T17:18:04.093Z,4.60
2018-05-12T17:20:36.165Z,4.30
2018-05-12T17:23:07.979Z,4.47
2018-05-12T17:25:41.635Z,4.60
2018-05-12T17:28:14.514Z,4.30
2018-05-12T17:30:46.702Z,4.65
2018-05-12T17:33:18.440Z,5.30
2018-05-12T17:35:50.371Z,7.87
2018-05-12T17:38:22.405Z,4.57
2018-05-12T17:40:54.643Z,4.60
2018-05-12T17:43:27.270Z,4.83
2018-05-12T17:45:58.874Z,5.77
2018-05-12T17:51:07.292Z,4.87
2018-05-12T17:53:41.756Z,4.57
2018-05-12T17:56:14.367Z,4.17
2018-05-12T17:58:47.660Z,4.40
2018-05-12T18:01:18.908Z,4.33
2018-05-12T18:03:51.079Z,4.90
2018-05-12T18:06:23.681Z,3.97
2018-05-12T18:08:57.810Z,3.80
2018-05-12T18:11:30.687Z,3.93
2018-05-12T18:14:02.526Z,4.07
2018-05-12T18:16:34.525Z,4.20
2018-05-12T18:19:07.187Z,4.10
2018-05-12T18:24:16.410Z,9.00
2018-05-12T18:26:48.578Z,16.63
2018-05-12T18:29:20.495Z,12.13
2018-05-12T18:31:52.003Z,12.13
2018-05-12T18:34:22.496Z,5.00
2018-05-12T18:36:55.777Z,5.63
2018-05-12T18:39:27.094Z,7.60
2018-05-12T18:41:57.868Z,7.33
2018-05-12T18:44:29.450Z,5.60
2018-05-12T18:47:01.891Z,7.13
2018-05-12T18:49:34.494Z,5.60
2018-05-12T18:52:05.460Z,5.80
2018-05-12T18:54:37.622Z,6.90
2018-05-12T18:57:09.448Z,7.23
2018-05-12T18:59:40.452Z,5.37
2018-05-12T19:02:11.137Z,5.10
2018-05-12T19:04:44.581Z,7.40
2018-05-12T19:07:16.433Z,5.17
2018-05-12T19:14:59.158Z,6.10
2018-05-12T19:17:30.850Z,6.75
2018-05-12T19:20:04.089Z,5.00
2018-05-12T19:22:35.893Z,5.73
2018-05-12T19:25:07.196Z,5.70
2018-05-12T19:27:38.846Z,4.50
2018-05-12T19:30:14.254Z,5.33
2018-05-12T19:32:45.445Z,6.20
2018-05-12T19:35:17.831Z,7.67
2018-05-12T19:37:48.755Z,7.83
2018-05-12T19:40:21.764Z,7.83
2018-05-12T19:42:53.316Z,6.53
2018-05-12T19:45:26.084Z,6.60
2018-05-12T19:47:58.149Z,9.30
2018-05-12T19:50:30.125Z,6.80
2018-05-12T19:58:14.808Z,7.00
2018-05-12T20:00:46.187Z,7.93
2018-05-12T20:03:19.065Z,8.13
2018-05-12T20:05:51.695Z,6.80
2018-05-12T20:08:24.029Z,6.97
2018-05-12T20:10:55.377Z,6.97
2018-05-12T20:13:28.035Z,7.95
2018-05-12T20:16:00.938Z,8.23
2018-05-12T20:21:08.505Z,8.50
2018-05-12T20:23:41.209Z,8.63
2018-05-12T20:26:14.520Z,7.77
2018-05-12T20:28:48.018Z,8.30
2018-05-12T20:31:20.341Z,8.13
2018-05-12T20:33:52.941Z,7.70
2018-05-12T20:36:25.492Z,8.50
2018-05-12T20:38:58.865Z,14.37
2018-05-12T20:44:08.046Z,10.80
2018-05-12T20:46:40.042Z,9.60
2018-05-12T20:49:13.299Z,9.13
2018-05-12T20:51:45.789Z,8.80
2018-05-12T20:54:17.290Z,8.67
2018-05-12T20:56:48.312Z,8.00
2018-05-12T20:59:19.968Z,9.10
2018-05-12T21:01:51.883Z,8.17
2018-05-12T21:04:24.226Z,8.60
2018-05-12T21:06:56.462Z,8.45
2018-05-12T21:09:29.687Z,9.13
2018-05-12T21:12:02.148Z,8.37
2018-05-12T21:14:35.640Z,8.90
2018-05-12T21:17:08.362Z,7.97
2018-05-12T21:19:39.911Z,8.20
2018-05-12T21:22:12.858Z,9.10
2018-05-12T21:24:45.581Z,8.30
2018-05-12T21:27:18.396Z,8.37
2018-05-12T21:32:30.185Z,8.60
2018-05-12T21:37:38.670Z,8.70
2018-05-12T21:40:11.954Z,8.60
2018-05-12T21:42:44.185Z,8.47
2018-05-12T21:45:17.034Z,9.63
2018-05-12T21:50:25.066Z,8.60
2018-05-12T21:52:57.509Z,41.17
2018-05-12T21:55:29.844Z,26.03
2018-05-12T21:58:03.446Z,13.43
2018-05-12T22:00:35.714Z,10.10
2018-05-12T22:03:08.022Z,8.95
2018-05-12T22:05:40.322Z,8.20
2018-05-12T22:08:11.668Z,8.93
2018-05-12T22:13:20.726Z,10.30
2018-05-12T22:18:30.159Z,9.05
2018-05-12T22:23:47.956Z,7.77
2018-05-12T22:26:19.982Z,7.70
2018-05-12T22:28:52.309Z,7.10
2018-05-12T22:31:24.595Z,7.23
2018-05-12T22:33:57.008Z,7.70
2018-05-12T22:36:30.967Z,8.50
2018-05-12T22:39:03.556Z,8.23
2018-05-12T22:41:36.575Z,8.03
2018-05-12T22:44:08.367Z,7.60
2018-05-12T22:46:40.706Z,8.37
2018-05-12T22:49:12.816Z,8.40
2018-05-12T22:51:45.989Z,8.03
2018-05-12T22:54:16.769Z,8.80
2018-05-12T22:56:49.080Z,7.93
2018-05-12T22:59:20.661Z,8.80
2018-05-12T23:01:56.873Z,9.23
2018-05-12T23:04:29.409Z,8.53
2018-05-12T23:07:02.877Z,8.23
2018-05-12T23:09:37.782Z,8.40
2018-05-12T23:12:09.825Z,8.97
2018-05-12T23:14:43.952Z,8.97
2018-05-12T23:17:16.836Z,8.27
2018-05-12T23:19:49.110Z,8.80
2018-05-12T23:22:21.819Z,9.47
2018-05-12T23:24:55.536Z,8.60
2018-05-12T23:27:29.189Z,8.53
2018-05-12T23:30:01.220Z,8.90
2018-05-12T23:32:34.107Z,9.53
2018-05-12T23:35:07.075Z,9.83
2018-05-12T23:37:40.129Z,9.33
2018-05-12T23:40:13.927Z,10.20
2018-05-12T23:42:46.750Z,10.23
2018-05-12T23:45:17.691Z,9.53
2018-05-12T23:50:27.220Z,11.40
2018-05-12T23:52:59.334Z,9.73
2018-05-12T23:55:32.721Z,9.70
2018-05-12T23:58:04.249Z,10.20
